sensor_id;sensor_type;location;lat;lon;timestamp;P1;durP1;ratioP1;P2;durP2;ratioP2
20101;SDS011;10210;52.284;9.892;2022-08-19T00:00:34;13.27;;;6.73;;
20101;SDS011;10210;52.284;9.892;2022-08-19T00:03:05;15.87;;;6.53;;
20101;SDS011;10210;52.284;9.892;2022-08-19T00:05:31;13.97;;;6.73;;
20101;SDS011;10210;52.284;9.892;2022-08-19T00:07:58;13.77;;;6.20;;
20101;SDS011;10210;52.284;9.892;2022-08-19T00:10:24;13.70;;;6.80;;
20101;SDS011;10210;52.284;9.892;2022-08-19T00:12:50;16.70;;;6.93;;
20101;SDS011;10210;52.284;9.892;2022-08-19T00:15:17;14.33;;;6.70;;
20101;SDS011;10210;52.284;9.892;2022-08-19T00:17:46;16.00;;;7.00;;
20101;SDS011;10210;52.284;9.892;2022-08-19T00:20:14;14.03;;;6.70;;
20101;SDS011;10210;52.284;9.892;2022-08-19T00:22:44;16.37;;;6.60;;
20101;SDS011;10210;52.284;9.892;2022-08-19T00:25:12;12.97;;;6.20;;
20101;SDS011;10210;52.284;9.892;2022-08-19T00:27:39;14.77;;;6.87;;
20101;SDS011;10210;52.284;9.892;2022-08-19T00:30:06;15.03;;;6.73;;
20101;SDS011;10210;52.284;9.892;2022-08-19T00:32:35;15.50;;;7.40;;
20101;SDS011;10210;52.284;9.892;2022-08-19T00:35:01;14.67;;;6.80;;
20101;SDS011;10210;52.284;9.892;2022-08-19T00:37:27;13.20;;;6.70;;
20101;SDS011;10210;52.284;9.892;2022-08-19T00:39:53;13.73;;;7.10;;
20101;SDS011;10210;52.284;9.892;2022-08-19T00:42:21;14.47;;;7.60;;
20101;SDS011;10210;52.284;9.892;2022-08-19T00:44:47;14.73;;;7.27;;
20101;SDS011;10210;52.284;9.892;2022-08-19T00:47:15;13.80;;;6.20;;
20101;SDS011;10210;52.284;9.892;2022-08-19T00:49:43;14.77;;;6.70;;
20101;SDS011;10210;52.284;9.892;2022-08-19T00:52:21;15.13;;;7.20;;
20101;SDS011;10210;52.284;9.892;2022-08-19T00:54:54;14.63;;;7.27;;
20101;SDS011;10210;52.284;9.892;2022-08-19T00:57:25;14.23;;;6.23;;
20101;SDS011;10210;52.284;9.892;2022-08-19T00:59:59;14.37;;;6.40;;
20101;SDS011;10210;52.284;9.892;2022-08-19T01:02:27;14.57;;;6.43;;
20101;SDS011;10210;52.284;9.892;2022-08-19T01:04:55;14.73;;;6.67;;
20101;SDS011;10210;52.284;9.892;2022-08-19T01:07:22;14.77;;;6.30;;
20101;SDS011;10210;52.284;9.892;2022-08-19T01:09:49;13.70;;;6.50;;
20101;SDS011;10210;52.284;9.892;2022-08-19T01:12:15;13.40;;;6.27;;
20101;SDS011;10210;52.284;9.892;2022-08-19T01:14:43;13.23;;;6.73;;
20101;SDS011;10210;52.284;9.892;2022-08-19T01:17:10;13.87;;;6.80;;
20101;SDS011;10210;52.284;9.892;2022-08-19T01:19:38;12.87;;;6.20;;
20101;SDS011;10210;52.284;9.892;2022-08-19T01:22:26;14.67;;;6.70;;
20101;SDS011;10210;52.284;9.892;2022-08-19T01:24:57;13.13;;;6.10;;
20101;SDS011;10210;52.284;9.892;2022-08-19T01:27:24;13.20;;;6.13;;
20101;SDS011;10210;52.284;9.892;2022-08-19T01:29:50;12.87;;;6.50;;
20101;SDS011;10210;52.284;9.892;2022-08-19T01:32:16;13.73;;;6.17;;
20101;SDS011;10210;52.284;9.892;2022-08-19T01:34:44;14.80;;;6.20;;
20101;SDS011;10210;52.284;9.892;2022-08-19T01:37:12;12.20;;;5.83;;
20101;SDS011;10210;52.284;9.892;2022-08-19T01:39:39;14.10;;;6.70;;
20101;SDS011;10210;52.284;9.892;2022-08-19T01:42:06;12.40;;;6.33;;
20101;SDS011;10210;52.284;9.892;2022-08-19T01:44:35;13.83;;;6.00;;
20101;SDS011;10210;52.284;9.892;2022-08-19T01:47:03;14.23;;;6.60;;
20101;SDS011;10210;52.284;9.892;2022-08-19T01:49:29;14.37;;;6.23;;
20101;SDS011;10210;52.284;9.892;2022-08-19T01:51:56;16.67;;;7.00;;
20101;SDS011;10210;52.284;9.892;2022-08-19T01:54:23;14.20;;;6.40;;
20101;SDS011;10210;52.284;9.892;2022-08-19T01:57:11;14.37;;;6.77;;
20101;SDS011;10210;52.284;9.892;2022-08-19T01:59:40;18.37;;;7.63;;
20101;SDS011;10210;52.284;9.892;2022-08-19T02:02:08;13.77;;;6.80;;
20101;SDS011;10210;52.284;9.892;2022-08-19T02:04:34;15.53;;;7.47;;
20101;SDS011;10210;52.284;9.892;2022-08-19T02:07:02;14.53;;;7.10;;
20101;SDS011;10210;52.284;9.892;2022-08-19T02:09:30;14.97;;;7.23;;
20101;SDS011;10210;52.284;9.892;2022-08-19T02:11:56;16.20;;;7.50;;
20101;SDS011;10210;52.284;9.892;2022-08-19T02:14:23;15.63;;;7.73;;
20101;SDS011;10210;52.284;9.892;2022-08-19T02:16:51;14.07;;;7.27;;
20101;SDS011;10210;52.284;9.892;2022-08-19T02:19:16;16.33;;;7.37;;
20101;SDS011;10210;52.284;9.892;2022-08-19T02:21:42;16.40;;;8.00;;
20101;SDS011;10210;52.284;9.892;2022-08-19T02:24:08;16.33;;;7.57;;
20101;SDS011;10210;52.284;9.892;2022-08-19T02:26:35;14.60;;;7.20;;
20101;SDS011;10210;52.284;9.892;2022-08-19T02:29:00;14.03;;;7.10;;
20101;SDS011;10210;52.284;9.892;2022-08-19T02:31:26;16.33;;;7.87;;
20101;SDS011;10210;52.284;9.892;2022-08-19T02:33:53;14.10;;;6.47;;
20101;SDS011;10210;52.284;9.892;2022-08-19T02:36:20;13.43;;;6.23;;
20101;SDS011;10210;52.284;9.892;2022-08-19T02:38:46;15.73;;;7.20;;
20101;SDS011;10210;52.284;9.892;2022-08-19T02:41:20;14.93;;;7.00;;
20101;SDS011;10210;52.284;9.892;2022-08-19T02:43:51;13.20;;;6.93;;
20101;SDS011;10210;52.284;9.892;2022-08-19T02:46:22;12.60;;;6.23;;
20101;SDS011;10210;52.284;9.892;2022-08-19T02:48:52;12.90;;;6.10;;
20101;SDS011;10210;52.284;9.892;2022-08-19T02:51:22;13.77;;;6.20;;
20101;SDS011;10210;52.284;9.892;2022-08-19T02:53:58;13.27;;;6.10;;
20101;SDS011;10210;52.284;9.892;2022-08-19T02:56:24;12.50;;;5.87;;
20101;SDS011;10210;52.284;9.892;2022-08-19T02:58:52;12.87;;;5.47;;
20101;SDS011;10210;52.284;9.892;2022-08-19T03:01:24;12.70;;;5.50;;
20101;SDS011;10210;52.284;9.892;2022-08-19T03:03:54;13.67;;;6.30;;
20101;SDS011;10210;52.284;9.892;2022-08-19T03:06:21;13.00;;;5.83;;
20101;SDS011;10210;52.284;9.892;2022-08-19T03:08:48;14.17;;;6.90;;
20101;SDS011;10210;52.284;9.892;2022-08-19T03:13:42;14.97;;;6.47;;
20101;SDS011;10210;52.284;9.892;2022-08-19T03:16:09;13.87;;;6.47;;
20101;SDS011;10210;52.284;9.892;2022-08-19T03:18:36;14.40;;;6.20;;
20101;SDS011;10210;52.284;9.892;2022-08-19T03:21:02;13.07;;;6.23;;
20101;SDS011;10210;52.284;9.892;2022-08-19T03:23:28;12.50;;;6.13;;
20101;SDS011;10210;52.284;9.892;2022-08-19T03:25:54;12.63;;;5.93;;
20101;SDS011;10210;52.284;9.892;2022-08-19T03:28:22;14.33;;;6.43;;
20101;SDS011;10210;52.284;9.892;2022-08-19T03:30:58;13.97;;;6.47;;
20101;SDS011;10210;52.284;9.892;2022-08-19T03:33:28;14.33;;;5.90;;
20101;SDS011;10210;52.284;9.892;2022-08-19T03:38:38;13.27;;;5.97;;
20101;SDS011;10210;52.284;9.892;2022-08-19T03:41:16;13.60;;;6.50;;
20101;SDS011;10210;52.284;9.892;2022-08-19T03:43:52;13.03;;;6.50;;
20101;SDS011;10210;52.284;9.892;2022-08-19T03:46:20;14.57;;;6.23;;
20101;SDS011;10210;52.284;9.892;2022-08-19T03:48:53;13.30;;;5.97;;
20101;SDS011;10210;52.284;9.892;2022-08-19T03:51:25;13.97;;;6.37;;
20101;SDS011;10210;52.284;9.892;2022-08-19T03:54:00;12.90;;;6.07;;
20101;SDS011;10210;52.284;9.892;2022-08-19T03:56:30;14.20;;;6.03;;
20101;SDS011;10210;52.284;9.892;2022-08-19T03:58:58;14.00;;;6.20;;
20101;SDS011;10210;52.284;9.892;2022-08-19T04:01:26;14.00;;;6.90;;
20101;SDS011;10210;52.284;9.892;2022-08-19T04:03:53;14.50;;;6.60;;
20101;SDS011;10210;52.284;9.892;2022-08-19T04:06:23;13.90;;;6.40;;
20101;SDS011;10210;52.284;9.892;2022-08-19T04:08:56;13.20;;;6.10;;
20101;SDS011;10210;52.284;9.892;2022-08-19T04:11:26;14.07;;;6.30;;
20101;SDS011;10210;52.284;9.892;2022-08-19T04:13:55;14.73;;;6.23;;
20101;SDS011;10210;52.284;9.892;2022-08-19T04:16:22;14.57;;;7.07;;
20101;SDS011;10210;52.284;9.892;2022-08-19T04:18:53;13.00;;;6.00;;
20101;SDS011;10210;52.284;9.892;2022-08-19T04:21:22;12.57;;;6.50;;
20101;SDS011;10210;52.284;9.892;2022-08-19T04:23:51;14.87;;;6.40;;
20101;SDS011;10210;52.284;9.892;2022-08-19T04:26:22;13.63;;;6.33;;
20101;SDS011;10210;52.284;9.892;2022-08-19T04:28:57;12.00;;;5.77;;
20101;SDS011;10210;52.284;9.892;2022-08-19T04:31:37;14.10;;;6.03;;
20101;SDS011;10210;52.284;9.892;2022-08-19T04:34:05;15.10;;;6.27;;
20101;SDS011;10210;52.284;9.892;2022-08-19T04:36:36;14.07;;;6.27;;
20101;SDS011;10210;52.284;9.892;2022-08-19T04:39:07;13.07;;;6.30;;
20101;SDS011;10210;52.284;9.892;2022-08-19T04:41:41;14.13;;;6.30;;
20101;SDS011;10210;52.284;9.892;2022-08-19T04:44:26;14.00;;;6.07;;
20101;SDS011;10210;52.284;9.892;2022-08-19T04:46:56;12.47;;;5.43;;
20101;SDS011;10210;52.284;9.892;2022-08-19T04:49:23;11.13;;;5.00;;
20101;SDS011;10210;52.284;9.892;2022-08-19T04:51:52;12.67;;;5.40;;
20101;SDS011;10210;52.284;9.892;2022-08-19T04:54:19;11.10;;;4.90;;
20101;SDS011;10210;52.284;9.892;2022-08-19T04:56:49;12.23;;;5.83;;
20101;SDS011;10210;52.284;9.892;2022-08-19T04:59:17;11.73;;;4.90;;
20101;SDS011;10210;52.284;9.892;2022-08-19T05:01:45;12.57;;;5.33;;
20101;SDS011;10210;52.284;9.892;2022-08-19T05:04:15;12.57;;;5.27;;
20101;SDS011;10210;52.284;9.892;2022-08-19T05:06:44;12.60;;;5.53;;
20101;SDS011;10210;52.284;9.892;2022-08-19T05:09:12;11.00;;;4.83;;
20101;SDS011;10210;52.284;9.892;2022-08-19T05:11:41;13.53;;;5.60;;
20101;SDS011;10210;52.284;9.892;2022-08-19T05:14:09;13.13;;;5.83;;
20101;SDS011;10210;52.284;9.892;2022-08-19T05:16:38;13.73;;;5.70;;
20101;SDS011;10210;52.284;9.892;2022-08-19T05:19:06;13.07;;;6.03;;
20101;SDS011;10210;52.284;9.892;2022-08-19T05:21:50;12.67;;;5.47;;
20101;SDS011;10210;52.284;9.892;2022-08-19T05:24:37;12.00;;;5.67;;
20101;SDS011;10210;52.284;9.892;2022-08-19T05:27:03;13.90;;;5.67;;
20101;SDS011;10210;52.284;9.892;2022-08-19T05:29:30;13.87;;;6.33;;
20101;SDS011;10210;52.284;9.892;2022-08-19T05:31:59;15.93;;;7.40;;
20101;SDS011;10210;52.284;9.892;2022-08-19T05:34:26;12.57;;;6.07;;
20101;SDS011;10210;52.284;9.892;2022-08-19T05:36:57;14.70;;;6.87;;
20101;SDS011;10210;52.284;9.892;2022-08-19T05:39:25;15.03;;;7.07;;
20101;SDS011;10210;52.284;9.892;2022-08-19T05:41:56;14.10;;;6.03;;
20101;SDS011;10210;52.284;9.892;2022-08-19T05:44:27;15.57;;;6.67;;
20101;SDS011;10210;52.284;9.892;2022-08-19T05:47:00;15.90;;;5.97;;
20101;SDS011;10210;52.284;9.892;2022-08-19T05:49:29;14.80;;;5.67;;
20101;SDS011;10210;52.284;9.892;2022-08-19T05:51:57;15.63;;;6.33;;
20101;SDS011;10210;52.284;9.892;2022-08-19T05:54:26;13.57;;;6.23;;
20101;SDS011;10210;52.284;9.892;2022-08-19T05:56:53;13.27;;;5.43;;
20101;SDS011;10210;52.284;9.892;2022-08-19T05:59:19;14.73;;;6.27;;
20101;SDS011;10210;52.284;9.892;2022-08-19T06:01:46;13.30;;;5.80;;
20101;SDS011;10210;52.284;9.892;2022-08-19T06:04:19;12.83;;;5.60;;
20101;SDS011;10210;52.284;9.892;2022-08-19T06:06:48;12.27;;;5.50;;
20101;SDS011;10210;52.284;9.892;2022-08-19T06:09:17;13.40;;;6.10;;
20101;SDS011;10210;52.284;9.892;2022-08-19T06:11:48;13.53;;;5.80;;
20101;SDS011;10210;52.284;9.892;2022-08-19T06:14:19;13.50;;;6.00;;
20101;SDS011;10210;52.284;9.892;2022-08-19T06:16:50;13.23;;;6.30;;
20101;SDS011;10210;52.284;9.892;2022-08-19T06:19:17;14.33;;;5.67;;
20101;SDS011;10210;52.284;9.892;2022-08-19T06:21:46;15.40;;;6.60;;
20101;SDS011;10210;52.284;9.892;2022-08-19T06:24:16;14.43;;;6.30;;
20101;SDS011;10210;52.284;9.892;2022-08-19T06:26:51;14.33;;;6.10;;
20101;SDS011;10210;52.284;9.892;2022-08-19T06:29:22;13.57;;;6.30;;
20101;SDS011;10210;52.284;9.892;2022-08-19T06:31:51;14.50;;;6.57;;
20101;SDS011;10210;52.284;9.892;2022-08-19T06:34:20;14.87;;;6.80;;
20101;SDS011;10210;52.284;9.892;2022-08-19T06:36:48;17.27;;;6.93;;
20101;SDS011;10210;52.284;9.892;2022-08-19T06:39:18;15.07;;;7.30;;
20101;SDS011;10210;52.284;9.892;2022-08-19T06:41:48;15.17;;;7.50;;
20101;SDS011;10210;52.284;9.892;2022-08-19T06:44:17;17.27;;;8.50;;
20101;SDS011;10210;52.284;9.892;2022-08-19T06:46:48;18.57;;;9.27;;
20101;SDS011;10210;52.284;9.892;2022-08-19T06:49:14;20.27;;;10.30;;
20101;SDS011;10210;52.284;9.892;2022-08-19T06:51:44;18.30;;;9.60;;
20101;SDS011;10210;52.284;9.892;2022-08-19T06:54:17;17.93;;;9.47;;
20101;SDS011;10210;52.284;9.892;2022-08-19T06:56:44;18.30;;;9.67;;
20101;SDS011;10210;52.284;9.892;2022-08-19T06:59:11;15.67;;;8.30;;
20101;SDS011;10210;52.284;9.892;2022-08-19T07:01:45;14.37;;;7.13;;
20101;SDS011;10210;52.284;9.892;2022-08-19T07:04:15;16.23;;;8.30;;
20101;SDS011;10210;52.284;9.892;2022-08-19T07:06:48;15.23;;;7.80;;
20101;SDS011;10210;52.284;9.892;2022-08-19T07:09:21;18.07;;;8.00;;
20101;SDS011;10210;52.284;9.892;2022-08-19T07:11:51;16.17;;;8.07;;
20101;SDS011;10210;52.284;9.892;2022-08-19T07:14:19;13.97;;;6.87;;
20101;SDS011;10210;52.284;9.892;2022-08-19T07:16:49;15.57;;;7.13;;
20101;SDS011;10210;52.284;9.892;2022-08-19T07:19:19;15.23;;;6.93;;
20101;SDS011;10210;52.284;9.892;2022-08-19T07:21:48;13.97;;;6.87;;
20101;SDS011;10210;52.284;9.892;2022-08-19T07:24:18;13.90;;;6.60;;
20101;SDS011;10210;52.284;9.892;2022-08-19T07:26:50;13.40;;;6.07;;
20101;SDS011;10210;52.284;9.892;2022-08-19T07:29:18;15.77;;;7.00;;
20101;SDS011;10210;52.284;9.892;2022-08-19T07:31:47;13.83;;;6.93;;
20101;SDS011;10210;52.284;9.892;2022-08-19T07:34:21;15.70;;;6.73;;
20101;SDS011;10210;52.284;9.892;2022-08-19T07:36:48;14.73;;;6.53;;
20101;SDS011;10210;52.284;9.892;2022-08-19T07:39:16;12.83;;;5.60;;
20101;SDS011;10210;52.284;9.892;2022-08-19T07:41:50;14.87;;;6.23;;
20101;SDS011;10210;52.284;9.892;2022-08-19T07:44:17;13.87;;;6.10;;
20101;SDS011;10210;52.284;9.892;2022-08-19T07:46:46;15.10;;;6.43;;
20101;SDS011;10210;52.284;9.892;2022-08-19T07:49:15;15.33;;;6.83;;
20101;SDS011;10210;52.284;9.892;2022-08-19T07:51:50;16.23;;;7.20;;
20101;SDS011;10210;52.284;9.892;2022-08-19T07:54:26;14.87;;;7.23;;
20101;SDS011;10210;52.284;9.892;2022-08-19T07:56:56;15.97;;;6.47;;
20101;SDS011;10210;52.284;9.892;2022-08-19T07:59:24;15.47;;;7.40;;
20101;SDS011;10210;52.284;9.892;2022-08-19T08:01:53;15.73;;;8.07;;
20101;SDS011;10210;52.284;9.892;2022-08-19T08:04:19;14.23;;;7.73;;
20101;SDS011;10210;52.284;9.892;2022-08-19T08:07:05;17.10;;;8.00;;
20101;SDS011;10210;52.284;9.892;2022-08-19T08:09:51;15.27;;;7.77;;
20101;SDS011;10210;52.284;9.892;2022-08-19T08:12:19;21.00;;;8.67;;
20101;SDS011;10210;52.284;9.892;2022-08-19T08:14:53;14.57;;;8.50;;
20101;SDS011;10210;52.284;9.892;2022-08-19T08:17:23;14.03;;;7.70;;
20101;SDS011;10210;52.284;9.892;2022-08-19T08:19:53;14.83;;;8.33;;
20101;SDS011;10210;52.284;9.892;2022-08-19T08:22:21;15.00;;;8.10;;
20101;SDS011;10210;52.284;9.892;2022-08-19T08:25:14;15.27;;;8.00;;
20101;SDS011;10210;52.284;9.892;2022-08-19T08:27:45;16.90;;;8.23;;
20101;SDS011;10210;52.284;9.892;2022-08-19T08:30:19;14.80;;;8.80;;
20101;SDS011;10210;52.284;9.892;2022-08-19T08:32:50;15.30;;;8.37;;
20101;SDS011;10210;52.284;9.892;2022-08-19T08:35:18;14.03;;;8.00;;
20101;SDS011;10210;52.284;9.892;2022-08-19T08:37:49;14.77;;;8.10;;
20101;SDS011;10210;52.284;9.892;2022-08-19T08:40:23;15.07;;;8.90;;
20101;SDS011;10210;52.284;9.892;2022-08-19T08:46:01;15.83;;;7.60;;
20101;SDS011;10210;52.284;9.892;2022-08-19T08:48:40;13.20;;;7.27;;
20101;SDS011;10210;52.284;9.892;2022-08-19T08:51:27;13.07;;;6.60;;
20101;SDS011;10210;52.284;9.892;2022-08-19T08:54:19;13.07;;;6.63;;
20101;SDS011;10210;52.284;9.892;2022-08-19T08:56:50;13.33;;;6.83;;
20101;SDS011;10210;52.284;9.892;2022-08-19T08:59:20;14.47;;;6.90;;
20101;SDS011;10210;52.284;9.892;2022-08-19T09:01:57;11.80;;;5.70;;
20101;SDS011;10210;52.284;9.892;2022-08-19T09:04:23;13.20;;;6.30;;
20101;SDS011;10210;52.284;9.892;2022-08-19T09:07:03;14.40;;;7.10;;
20101;SDS011;10210;52.284;9.892;2022-08-19T09:09:47;11.90;;;6.40;;
20101;SDS011;10210;52.284;9.892;2022-08-19T09:12:39;12.83;;;6.20;;
20101;SDS011;10210;52.284;9.892;2022-08-19T09:15:41;11.20;;;5.80;;
20101;SDS011;10210;52.284;9.892;2022-08-19T09:18:13;13.37;;;6.80;;
20101;SDS011;10210;52.284;9.892;2022-08-19T09:20:41;13.67;;;6.07;;
20101;SDS011;10210;52.284;9.892;2022-08-19T09:23:07;11.97;;;5.57;;
20101;SDS011;10210;52.284;9.892;2022-08-19T09:25:34;12.07;;;5.77;;
20101;SDS011;10210;52.284;9.892;2022-08-19T09:28:00;13.07;;;6.27;;
20101;SDS011;10210;52.284;9.892;2022-08-19T09:30:32;13.97;;;6.90;;
20101;SDS011;10210;52.284;9.892;2022-08-19T09:33:04;13.10;;;6.13;;
20101;SDS011;10210;52.284;9.892;2022-08-19T09:35:33;12.33;;;5.53;;
20101;SDS011;10210;52.284;9.892;2022-08-19T09:38:00;12.00;;;5.60;;
20101;SDS011;10210;52.284;9.892;2022-08-19T09:40:27;12.33;;;5.53;;
20101;SDS011;10210;52.284;9.892;2022-08-19T09:42:54;11.83;;;5.50;;
20101;SDS011;10210;52.284;9.892;2022-08-19T09:45:22;11.17;;;4.97;;
20101;SDS011;10210;52.284;9.892;2022-08-19T09:47:49;12.93;;;5.27;;
20101;SDS011;10210;52.284;9.892;2022-08-19T09:50:17;9.93;;;4.53;;
20101;SDS011;10210;52.284;9.892;2022-08-19T09:52:43;11.83;;;4.93;;
20101;SDS011;10210;52.284;9.892;2022-08-19T09:55:11;11.73;;;5.30;;
20101;SDS011;10210;52.284;9.892;2022-08-19T09:57:38;10.77;;;4.50;;
20101;SDS011;10210;52.284;9.892;2022-08-19T10:00:06;10.33;;;4.70;;
20101;SDS011;10210;52.284;9.892;2022-08-19T10:02:34;8.53;;;4.27;;
20101;SDS011;10210;52.284;9.892;2022-08-19T10:05:06;10.20;;;4.50;;
20101;SDS011;10210;52.284;9.892;2022-08-19T10:07:50;9.60;;;4.37;;
20101;SDS011;10210;52.284;9.892;2022-08-19T10:10:17;8.50;;;3.83;;
20101;SDS011;10210;52.284;9.892;2022-08-19T10:12:46;10.70;;;4.83;;
20101;SDS011;10210;52.284;9.892;2022-08-19T10:15:12;8.90;;;4.20;;
20101;SDS011;10210;52.284;9.892;2022-08-19T10:17:39;9.73;;;4.40;;
20101;SDS011;10210;52.284;9.892;2022-08-19T10:20:04;10.20;;;4.30;;
20101;SDS011;10210;52.284;9.892;2022-08-19T10:22:31;9.33;;;4.27;;
20101;SDS011;10210;52.284;9.892;2022-08-19T10:24:57;9.10;;;4.30;;
20101;SDS011;10210;52.284;9.892;2022-08-19T10:27:24;9.93;;;3.83;;
20101;SDS011;10210;52.284;9.892;2022-08-19T10:29:50;8.80;;;3.90;;
20101;SDS011;10210;52.284;9.892;2022-08-19T10:32:16;12.77;;;4.10;;
20101;SDS011;10210;52.284;9.892;2022-08-19T10:34:41;7.30;;;3.30;;
20101;SDS011;10210;52.284;9.892;2022-08-19T10:37:08;9.47;;;3.87;;
20101;SDS011;10210;52.284;9.892;2022-08-19T10:39:35;8.20;;;3.53;;
20101;SDS011;10210;52.284;9.892;2022-08-19T10:42:07;8.73;;;3.70;;
20101;SDS011;10210;52.284;9.892;2022-08-19T10:44:38;6.83;;;3.07;;
20101;SDS011;10210;52.284;9.892;2022-08-19T10:47:04;8.03;;;3.27;;
20101;SDS011;10210;52.284;9.892;2022-08-19T10:49:31;6.50;;;2.80;;
20101;SDS011;10210;52.284;9.892;2022-08-19T10:51:57;7.97;;;3.13;;
20101;SDS011;10210;52.284;9.892;2022-08-19T10:54:43;9.10;;;3.30;;
20101;SDS011;10210;52.284;9.892;2022-08-19T10:57:30;8.00;;;3.20;;
20101;SDS011;10210;52.284;9.892;2022-08-19T10:59:56;10.73;;;3.60;;
20101;SDS011;10210;52.284;9.892;2022-08-19T11:02:23;6.93;;;3.10;;
20101;SDS011;10210;52.284;9.892;2022-08-19T11:04:49;8.40;;;3.20;;
20101;SDS011;10210;52.284;9.892;2022-08-19T11:07:16;7.00;;;2.73;;
20101;SDS011;10210;52.284;9.892;2022-08-19T11:09:42;7.93;;;3.10;;
20101;SDS011;10210;52.284;9.892;2022-08-19T11:12:09;5.67;;;2.37;;
20101;SDS011;10210;52.284;9.892;2022-08-19T11:14:37;8.40;;;2.80;;
20101;SDS011;10210;52.284;9.892;2022-08-19T11:17:04;5.90;;;2.43;;
20101;SDS011;10210;52.284;9.892;2022-08-19T11:19:30;5.47;;;2.50;;
20101;SDS011;10210;52.284;9.892;2022-08-19T11:21:57;5.90;;;2.53;;
20101;SDS011;10210;52.284;9.892;2022-08-19T11:24:28;7.73;;;3.03;;
20101;SDS011;10210;52.284;9.892;2022-08-19T11:27:00;7.43;;;2.57;;
20101;SDS011;10210;52.284;9.892;2022-08-19T11:29:33;6.83;;;2.53;;
20101;SDS011;10210;52.284;9.892;2022-08-19T11:32:03;5.30;;;2.27;;
20101;SDS011;10210;52.284;9.892;2022-08-19T11:34:35;4.50;;;2.30;;
20101;SDS011;10210;52.284;9.892;2022-08-19T11:37:03;5.53;;;2.50;;
20101;SDS011;10210;52.284;9.892;2022-08-19T11:39:29;5.70;;;2.40;;
20101;SDS011;10210;52.284;9.892;2022-08-19T11:41:57;7.33;;;2.67;;
20101;SDS011;10210;52.284;9.892;2022-08-19T11:44:24;4.67;;;2.40;;
20101;SDS011;10210;52.284;9.892;2022-08-19T11:46:50;5.70;;;2.50;;
20101;SDS011;10210;52.284;9.892;2022-08-19T11:49:18;6.20;;;2.40;;
20101;SDS011;10210;52.284;9.892;2022-08-19T11:51:46;5.63;;;2.50;;
20101;SDS011;10210;52.284;9.892;2022-08-19T11:54:15;7.60;;;2.57;;
20101;SDS011;10210;52.284;9.892;2022-08-19T11:56:43;8.10;;;2.90;;
20101;SDS011;10210;52.284;9.892;2022-08-19T11:59:11;6.47;;;2.60;;
20101;SDS011;10210;52.284;9.892;2022-08-19T12:01:36;7.43;;;2.80;;
20101;SDS011;10210;52.284;9.892;2022-08-19T12:04:02;5.37;;;2.50;;
20101;SDS011;10210;52.284;9.892;2022-08-19T12:06:31;4.83;;;2.50;;
20101;SDS011;10210;52.284;9.892;2022-08-19T12:09:00;4.73;;;2.40;;
20101;SDS011;10210;52.284;9.892;2022-08-19T12:11:30;6.10;;;2.70;;
20101;SDS011;10210;52.284;9.892;2022-08-19T12:13:56;5.37;;;2.50;;
20101;SDS011;10210;52.284;9.892;2022-08-19T12:16:24;6.60;;;2.40;;
20101;SDS011;10210;52.284;9.892;2022-08-19T12:18:52;11.67;;;2.53;;
20101;SDS011;10210;52.284;9.892;2022-08-19T12:21:22;6.10;;;2.57;;
20101;SDS011;10210;52.284;9.892;2022-08-19T12:23:53;6.93;;;2.30;;
20101;SDS011;10210;52.284;9.892;2022-08-19T12:26:22;6.63;;;2.50;;
20101;SDS011;10210;52.284;9.892;2022-08-19T12:28:49;6.10;;;2.70;;
20101;SDS011;10210;52.284;9.892;2022-08-19T12:31:15;5.97;;;2.50;;
20101;SDS011;10210;52.284;9.892;2022-08-19T12:33:42;6.00;;;2.50;;
20101;SDS011;10210;52.284;9.892;2022-08-19T12:36:09;4.13;;;2.20;;
20101;SDS011;10210;52.284;9.892;2022-08-19T12:38:39;5.17;;;2.37;;
20101;SDS011;10210;52.284;9.892;2022-08-19T12:41:09;5.20;;;2.28;;
20101;SDS011;10210;52.284;9.892;2022-08-19T12:43:40;4.53;;;2.40;;
20101;SDS011;10210;52.284;9.892;2022-08-19T12:46:07;4.75;;;2.20;;
20101;SDS011;10210;52.284;9.892;2022-08-19T12:48:34;4.97;;;2.30;;
20101;SDS011;10210;52.284;9.892;2022-08-19T12:51:00;4.20;;;2.17;;
20101;SDS011;10210;52.284;9.892;2022-08-19T12:53:32;4.32;;;2.05;;
20101;SDS011;10210;52.284;9.892;2022-08-19T12:55:58;4.43;;;2.20;;
20101;SDS011;10210;52.284;9.892;2022-08-19T12:58:24;5.13;;;2.35;;
20101;SDS011;10210;52.284;9.892;2022-08-19T13:00:53;6.43;;;2.60;;
20101;SDS011;10210;52.284;9.892;2022-08-19T13:03:21;5.13;;;2.30;;
20101;SDS011;10210;52.284;9.892;2022-08-19T13:05:54;4.75;;;1.98;;
20101;SDS011;10210;52.284;9.892;2022-08-19T13:08:23;4.93;;;2.35;;
20101;SDS011;10210;52.284;9.892;2022-08-19T13:10:48;4.50;;;1.98;;
20101;SDS011;10210;52.284;9.892;2022-08-19T13:13:14;4.63;;;1.92;;
20101;SDS011;10210;52.284;9.892;2022-08-19T13:15:41;7.00;;;2.20;;
20101;SDS011;10210;52.284;9.892;2022-08-19T13:18:09;4.75;;;2.00;;
20101;SDS011;10210;52.284;9.892;2022-08-19T13:20:39;5.68;;;2.30;;
20101;SDS011;10210;52.284;9.892;2022-08-19T13:23:08;4.35;;;2.30;;
20101;SDS011;10210;52.284;9.892;2022-08-19T13:25:34;6.15;;;2.22;;
20101;SDS011;10210;52.284;9.892;2022-08-19T13:28:01;4.70;;;2.00;;
20101;SDS011;10210;52.284;9.892;2022-08-19T13:30:28;4.00;;;1.77;;
20101;SDS011;10210;52.284;9.892;2022-08-19T13:33:30;4.50;;;2.03;;
20101;SDS011;10210;52.284;9.892;2022-08-19T13:35:58;5.22;;;2.40;;
20101;SDS011;10210;52.284;9.892;2022-08-19T13:38:27;6.25;;;2.55;;
20101;SDS011;10210;52.284;9.892;2022-08-19T13:40:53;7.70;;;2.42;;
20101;SDS011;10210;52.284;9.892;2022-08-19T13:43:21;6.20;;;2.40;;
20101;SDS011;10210;52.284;9.892;2022-08-19T13:45:52;7.32;;;2.45;;
20101;SDS011;10210;52.284;9.892;2022-08-19T13:48:24;6.18;;;2.58;;
20101;SDS011;10210;52.284;9.892;2022-08-19T13:50:54;6.90;;;2.40;;
20101;SDS011;10210;52.284;9.892;2022-08-19T13:53:21;3.88;;;2.10;;
20101;SDS011;10210;52.284;9.892;2022-08-19T13:55:47;4.25;;;1.90;;
20101;SDS011;10210;52.284;9.892;2022-08-19T13:58:15;4.68;;;1.77;;
20101;SDS011;10210;52.284;9.892;2022-08-19T14:00:42;4.55;;;1.90;;
20101;SDS011;10210;52.284;9.892;2022-08-19T14:03:10;4.40;;;2.05;;
20101;SDS011;10210;52.284;9.892;2022-08-19T14:05:36;3.60;;;1.85;;
20101;SDS011;10210;52.284;9.892;2022-08-19T14:08:04;5.13;;;2.00;;
20101;SDS011;10210;52.284;9.892;2022-08-19T14:10:30;4.43;;;2.03;;
20101;SDS011;10210;52.284;9.892;2022-08-19T14:12:57;4.40;;;2.00;;
20101;SDS011;10210;52.284;9.892;2022-08-19T14:15:26;4.55;;;1.80;;
20101;SDS011;10210;52.284;9.892;2022-08-19T14:17:53;43.22;;;4.18;;
20101;SDS011;10210;52.284;9.892;2022-08-19T14:20:19;4.60;;;1.70;;
20101;SDS011;10210;52.284;9.892;2022-08-19T14:22:46;3.72;;;1.67;;
20101;SDS011;10210;52.284;9.892;2022-08-19T14:25:14;3.58;;;1.90;;
20101;SDS011;10210;52.284;9.892;2022-08-19T14:27:45;5.63;;;1.80;;
20101;SDS011;10210;52.284;9.892;2022-08-19T14:30:13;2.90;;;1.70;;
20101;SDS011;10210;52.284;9.892;2022-08-19T14:32:45;4.43;;;1.80;;
20101;SDS011;10210;52.284;9.892;2022-08-19T14:35:11;3.55;;;1.90;;
20101;SDS011;10210;52.284;9.892;2022-08-19T14:37:39;3.30;;;1.90;;
20101;SDS011;10210;52.284;9.892;2022-08-19T14:40:09;3.40;;;1.50;;
20101;SDS011;10210;52.284;9.892;2022-08-19T14:42:36;3.35;;;1.70;;
20101;SDS011;10210;52.284;9.892;2022-08-19T14:45:02;3.78;;;1.77;;
20101;SDS011;10210;52.284;9.892;2022-08-19T14:47:33;4.35;;;1.50;;
20101;SDS011;10210;52.284;9.892;2022-08-19T14:49:59;3.00;;;1.60;;
20101;SDS011;10210;52.284;9.892;2022-08-19T14:52:25;5.18;;;1.63;;
20101;SDS011;10210;52.284;9.892;2022-08-19T14:54:51;4.50;;;1.73;;
20101;SDS011;10210;52.284;9.892;2022-08-19T14:57:17;2.70;;;1.63;;
20101;SDS011;10210;52.284;9.892;2022-08-19T14:59:44;3.70;;;1.70;;